sensor_id;sensor_type;location;lat;lon;timestamp;temperature;humidity
17442;DHT22;8838;50.144;8.176;2023-03-14T00:00:54;9.30;99.90
17442;DHT22;8838;50.144;8.176;2023-03-14T00:03:20;9.20;99.90
17442;DHT22;8838;50.144;8.176;2023-03-14T00:05:47;9.30;99.90
17442;DHT22;8838;50.144;8.176;2023-03-14T00:08:14;9.30;99.90
17442;DHT22;8838;50.144;8.176;2023-03-14T00:10:41;9.20;99.90
17442;DHT22;8838;50.144;8.176;2023-03-14T00:13:08;9.20;99.90
17442;DHT22;8838;50.144;8.176;2023-03-14T00:15:37;9.20;99.90
17442;DHT22;8838;50.144;8.176;2023-03-14T00:18:04;9.20;99.90
17442;DHT22;8838;50.144;8.176;2023-03-14T00:20:31;9.30;99.90
17442;DHT22;8838;50.144;8.176;2023-03-14T00:22:57;9.30;99.90
17442;DHT22;8838;50.144;8.176;2023-03-14T00:25:24;9.30;99.90
17442;DHT22;8838;50.144;8.176;2023-03-14T00:27:51;9.30;99.90
17442;DHT22;8838;50.144;8.176;2023-03-14T00:30:18;9.30;99.90
17442;DHT22;8838;50.144;8.176;2023-03-14T00:32:46;9.20;99.90
17442;DHT22;8838;50.144;8.176;2023-03-14T00:35:13;9.30;99.90
17442;DHT22;8838;50.144;8.176;2023-03-14T00:37:43;9.30;99.90
17442;DHT22;8838;50.144;8.176;2023-03-14T00:40:10;9.30;99.90
17442;DHT22;8838;50.144;8.176;2023-03-14T00:42:37;9.20;99.90
17442;DHT22;8838;50.144;8.176;2023-03-14T00:45:05;9.20;99.90
17442;DHT22;8838;50.144;8.176;2023-03-14T00:47:33;9.20;99.90
17442;DHT22;8838;50.144;8.176;2023-03-14T00:50:03;9.20;99.90
17442;DHT22;8838;50.144;8.176;2023-03-14T00:52:30;9.10;99.90
17442;DHT22;8838;50.144;8.176;2023-03-14T00:54:56;9.10;99.90
17442;DHT22;8838;50.144;8.176;2023-03-14T00:57:23;9.20;99.90
17442;DHT22;8838;50.144;8.176;2023-03-14T00:59:51;9.10;99.90
17442;DHT22;8838;50.144;8.176;2023-03-14T01:02:18;9.10;99.90
17442;DHT22;8838;50.144;8.176;2023-03-14T01:04:47;9.10;99.90
17442;DHT22;8838;50.144;8.176;2023-03-14T01:07:15;9.20;99.90
17442;DHT22;8838;50.144;8.176;2023-03-14T01:09:42;9.10;99.90
17442;DHT22;8838;50.144;8.176;2023-03-14T01:12:09;9.10;99.90
17442;DHT22;8838;50.144;8.176;2023-03-14T01:14:35;9.10;99.90
17442;DHT22;8838;50.144;8.176;2023-03-14T01:17:02;9.20;99.90
17442;DHT22;8838;50.144;8.176;2023-03-14T01:19:29;9.20;99.90
17442;DHT22;8838;50.144;8.176;2023-03-14T01:21:57;9.20;99.90
17442;DHT22;8838;50.144;8.176;2023-03-14T01:24:25;9.20;99.90
17442;DHT22;8838;50.144;8.176;2023-03-14T01:26:52;9.20;99.90
17442;DHT22;8838;50.144;8.176;2023-03-14T01:29:18;9.20;99.90
17442;DHT22;8838;50.144;8.176;2023-03-14T01:31:45;9.20;99.90
17442;DHT22;8838;50.144;8.176;2023-03-14T01:34:12;9.10;99.90
17442;DHT22;8838;50.144;8.176;2023-03-14T01:36:39;9.10;99.90
17442;DHT22;8838;50.144;8.176;2023-03-14T01:39:06;9.10;99.90
17442;DHT22;8838;50.144;8.176;2023-03-14T01:41:36;9.10;99.90
17442;DHT22;8838;50.144;8.176;2023-03-14T01:44:03;9.10;99.90
17442;DHT22;8838;50.144;8.176;2023-03-14T01:46:37;9.10;99.90
17442;DHT22;8838;50.144;8.176;2023-03-14T01:49:11;9.10;99.90
17442;DHT22;8838;50.144;8.176;2023-03-14T01:51:44;9.10;99.90
17442;DHT22;8838;50.144;8.176;2023-03-14T01:54:16;9.10;99.90
17442;DHT22;8838;50.144;8.176;2023-03-14T01:56:49;9.00;99.90
17442;DHT22;8838;50.144;8.176;2023-03-14T01:59:16;9.00;99.90
17442;DHT22;8838;50.144;8.176;2023-03-14T02:01:46;9.00;99.90
17442;DHT22;8838;50.144;8.176;2023-03-14T02:04:14;9.00;99.90
17442;DHT22;8838;50.144;8.176;2023-03-14T02:06:50;8.90;99.90
17442;DHT22;8838;50.144;8.176;2023-03-14T02:09:19;8.90;99.90
17442;DHT22;8838;50.144;8.176;2023-03-14T02:11:49;8.90;99.90
17442;DHT22;8838;50.144;8.176;2023-03-14T02:14:25;8.90;99.90
17442;DHT22;8838;50.144;8.176;2023-03-14T02:16:53;8.90;99.90
17442;DHT22;8838;50.144;8.176;2023-03-14T02:19:26;8.90;99.90
17442;DHT22;8838;50.144;8.176;2023-03-14T02:21:59;8.90;99.90
17442;DHT22;8838;50.144;8.176;2023-03-14T02:24:33;8.90;99.90
17442;DHT22;8838;50.144;8.176;2023-03-14T02:27:09;8.90;99.90
17442;DHT22;8838;50.144;8.176;2023-03-14T02:29:41;8.80;99.90
17442;DHT22;8838;50.144;8.176;2023-03-14T02:32:10;8.80;99.90
17442;DHT22;8838;50.144;8.176;2023-03-14T02:34:37;8.80;99.90
17442;DHT22;8838;50.144;8.176;2023-03-14T02:37:05;8.80;99.90
17442;DHT22;8838;50.144;8.176;2023-03-14T02:39:36;8.80;99.90
17442;DHT22;8838;50.144;8.176;2023-03-14T02:42:05;8.70;99.90
17442;DHT22;8838;50.144;8.176;2023-03-14T02:44:34;8.70;99.90
17442;DHT22;8838;50.144;8.176;2023-03-14T02:47:02;8.70;99.90
17442;DHT22;8838;50.144;8.176;2023-03-14T02:49:32;8.70;99.90
17442;DHT22;8838;50.144;8.176;2023-03-14T02:51:59;8.70;99.90
17442;DHT22;8838;50.144;8.176;2023-03-14T02:54:26;8.70;99.90
17442;DHT22;8838;50.144;8.176;2023-03-14T02:56:53;8.70;99.90
17442;DHT22;8838;50.144;8.176;2023-03-14T02:59:21;8.70;99.90
17442;DHT22;8838;50.144;8.176;2023-03-14T03:01:48;8.70;99.90
17442;DHT22;8838;50.144;8.176;2023-03-14T03:04:15;8.70;99.90
17442;DHT22;8838;50.144;8.176;2023-03-14T03:06:41;8.70;99.90
17442;DHT22;8838;50.144;8.176;2023-03-14T03:09:09;8.70;99.90
17442;DHT22;8838;50.144;8.176;2023-03-14T03:11:35;8.70;99.90
17442;DHT22;8838;50.144;8.176;2023-03-14T03:14:02;8.70;99.90
17442;DHT22;8838;50.144;8.176;2023-03-14T03:16:30;8.70;99.90
17442;DHT22;8838;50.144;8.176;2023-03-14T03:18:57;8.70;99.90
17442;DHT22;8838;50.144;8.176;2023-03-14T03:21:24;8.70;99.90
17442;DHT22;8838;50.144;8.176;2023-03-14T03:23:51;8.70;99.90
17442;DHT22;8838;50.144;8.176;2023-03-14T03:26:18;8.70;99.90
17442;DHT22;8838;50.144;8.176;2023-03-14T03:28:44;8.80;99.90
17442;DHT22;8838;50.144;8.176;2023-03-14T03:31:12;8.80;99.90
17442;DHT22;8838;50.144;8.176;2023-03-14T03:33:42;8.80;99.90
17442;DHT22;8838;50.144;8.176;2023-03-14T03:36:09;8.80;99.90
17442;DHT22;8838;50.144;8.176;2023-03-14T03:38:36;8.80;99.90
17442;DHT22;8838;50.144;8.176;2023-03-14T03:41:04;8.80;99.90
17442;DHT22;8838;50.144;8.176;2023-03-14T03:43:31;8.80;99.90
17442;DHT22;8838;50.144;8.176;2023-03-14T03:45:58;8.90;99.90
17442;DHT22;8838;50.144;8.176;2023-03-14T03:48:25;8.90;99.90
17442;DHT22;8838;50.144;8.176;2023-03-14T03:50:53;8.80;99.90
17442;DHT22;8838;50.144;8.176;2023-03-14T03:53:20;8.80;99.90
17442;DHT22;8838;50.144;8.176;2023-03-14T03:55:47;8.80;99.90
17442;DHT22;8838;50.144;8.176;2023-03-14T03:58:15;8.80;99.90
17442;DHT22;8838;50.144;8.176;2023-03-14T04:00:42;8.80;99.90
17442;DHT22;8838;50.144;8.176;2023-03-14T04:03:09;8.90;99.90
17442;DHT22;8838;50.144;8.176;2023-03-14T04:05:36;8.80;99.90
17442;DHT22;8838;50.144;8.176;2023-03-14T04:08:04;8.80;99.90
17442;DHT22;8838;50.144;8.176;2023-03-14T04:10:34;8.80;99.90
17442;DHT22;8838;50.144;8.176;2023-03-14T04:13:00;8.90;99.90
17442;DHT22;8838;50.144;8.176;2023-03-14T04:15:27;8.80;99.90
17442;DHT22;8838;50.144;8.176;2023-03-14T04:17:56;8.80;99.90
17442;DHT22;8838;50.144;8.176;2023-03-14T04:20:23;8.80;99.90
17442;DHT22;8838;50.144;8.176;2023-03-14T04:22:50;8.80;99.90
17442;DHT22;8838;50.144;8.176;2023-03-14T04:25:18;8.70;99.90
17442;DHT22;8838;50.144;8.176;2023-03-14T04:27:46;8.80;99.90
17442;DHT22;8838;50.144;8.176;2023-03-14T04:30:12;8.80;99.90
17442;DHT22;8838;50.144;8.176;2023-03-14T04:32:39;8.90;99.90
17442;DHT22;8838;50.144;8.176;2023-03-14T04:35:07;8.80;99.90
17442;DHT22;8838;50.144;8.176;2023-03-14T04:37:34;8.80;99.90
17442;DHT22;8838;50.144;8.176;2023-03-14T04:40:00;8.70;99.90
17442;DHT22;8838;50.144;8.176;2023-03-14T04:42:31;8.70;99.90
17442;DHT22;8838;50.144;8.176;2023-03-14T04:44:58;8.70;99.90
17442;DHT22;8838;50.144;8.176;2023-03-14T04:47:25;8.70;99.90
17442;DHT22;8838;50.144;8.176;2023-03-14T04:49:52;8.70;99.90
17442;DHT22;8838;50.144;8.176;2023-03-14T04:52:19;8.70;99.90
17442;DHT22;8838;50.144;8.176;2023-03-14T04:54:46;8.70;99.90
17442;DHT22;8838;50.144;8.176;2023-03-14T04:57:13;8.70;99.90
17442;DHT22;8838;50.144;8.176;2023-03-14T04:59:41;8.70;99.90
17442;DHT22;8838;50.144;8.176;2023-03-14T05:02:08;8.70;99.90
17442;DHT22;8838;50.144;8.176;2023-03-14T05:04:35;8.70;99.90
17442;DHT22;8838;50.144;8.176;2023-03-14T05:07:02;8.60;99.90
17442;DHT22;8838;50.144;8.176;2023-03-14T05:09:28;8.60;99.90
17442;DHT22;8838;50.144;8.176;2023-03-14T05:11:57;8.60;99.90
17442;DHT22;8838;50.144;8.176;2023-03-14T05:14:24;8.60;99.90
17442;DHT22;8838;50.144;8.176;2023-03-14T05:16:52;8.60;99.90
17442;DHT22;8838;50.144;8.176;2023-03-14T05:19:19;8.60;99.90
17442;DHT22;8838;50.144;8.176;2023-03-14T05:21:46;8.60;99.90
17442;DHT22;8838;50.144;8.176;2023-03-14T05:24:12;8.60;99.90
17442;DHT22;8838;50.144;8.176;2023-03-14T05:26:39;8.60;99.90
17442;DHT22;8838;50.144;8.176;2023-03-14T05:29:06;8.50;99.90
17442;DHT22;8838;50.144;8.176;2023-03-14T05:31:33;8.50;99.90
17442;DHT22;8838;50.144;8.176;2023-03-14T05:34:01;8.50;99.90
17442;DHT22;8838;50.144;8.176;2023-03-14T05:36:28;8.50;99.90
17442;DHT22;8838;50.144;8.176;2023-03-14T05:38:54;8.50;99.90
17442;DHT22;8838;50.144;8.176;2023-03-14T05:41:21;8.50;99.90
17442;DHT22;8838;50.144;8.176;2023-03-14T05:43:48;8.50;99.90
17442;DHT22;8838;50.144;8.176;2023-03-14T05:46:15;8.50;99.90
17442;DHT22;8838;50.144;8.176;2023-03-14T05:48:42;8.60;99.90
17442;DHT22;8838;50.144;8.176;2023-03-14T05:51:10;8.60;99.90
17442;DHT22;8838;50.144;8.176;2023-03-14T05:53:37;8.70;99.90
17442;DHT22;8838;50.144;8.176;2023-03-14T05:56:04;8.70;99.90
17442;DHT22;8838;50.144;8.176;2023-03-14T05:58:31;8.60;99.90
17442;DHT22;8838;50.144;8.176;2023-03-14T06:01:01;8.60;99.90
17442;DHT22;8838;50.144;8.176;2023-03-14T06:03:28;8.60;99.90
17442;DHT22;8838;50.144;8.176;2023-03-14T06:05:55;8.50;99.90
17442;DHT22;8838;50.144;8.176;2023-03-14T06:08:23;8.60;99.90
17442;DHT22;8838;50.144;8.176;2023-03-14T06:10:50;8.60;99.90
17442;DHT22;8838;50.144;8.176;2023-03-14T06:13:17;8.60;99.90
17442;DHT22;8838;50.144;8.176;2023-03-14T06:15:44;8.60;99.90
17442;DHT22;8838;50.144;8.176;2023-03-14T06:18:11;8.60;99.90
17442;DHT22;8838;50.144;8.176;2023-03-14T06:20:39;8.70;99.90
17442;DHT22;8838;50.144;8.176;2023-03-14T06:23:07;8.70;99.90
17442;DHT22;8838;50.144;8.176;2023-03-14T06:25:36;8.60;99.90
17442;DHT22;8838;50.144;8.176;2023-03-14T06:28:03;8.70;99.90
17442;DHT22;8838;50.144;8.176;2023-03-14T06:30:29;8.70;99.90
17442;DHT22;8838;50.144;8.176;2023-03-14T06:32:56;8.70;99.90
17442;DHT22;8838;50.144;8.176;2023-03-14T06:35:23;8.80;99.90
17442;DHT22;8838;50.144;8.176;2023-03-14T06:37:50;8.70;99.90
17442;DHT22;8838;50.144;8.176;2023-03-14T06:40:17;8.80;99.90
17442;DHT22;8838;50.144;8.176;2023-03-14T06:42:45;8.70;99.90
17442;DHT22;8838;50.144;8.176;2023-03-14T06:45:13;8.80;99.90
17442;DHT22;8838;50.144;8.176;2023-03-14T06:47:40;8.70;99.90
17442;DHT22;8838;50.144;8.176;2023-03-14T06:50:09;8.80;99.90
17442;DHT22;8838;50.144;8.176;2023-03-14T06:52:36;8.80;99.90
17442;DHT22;8838;50.144;8.176;2023-03-14T06:55:07;8.80;99.90
17442;DHT22;8838;50.144;8.176;2023-03-14T06:57:34;8.80;99.90
17442;DHT22;8838;50.144;8.176;2023-03-14T07:00:03;8.80;99.90
17442;DHT22;8838;50.144;8.176;2023-03-14T07:02:30;8.90;99.90
17442;DHT22;8838;50.144;8.176;2023-03-14T07:04:57;8.90;99.90
17442;DHT22;8838;50.144;8.176;2023-03-14T07:07:24;8.90;99.90
17442;DHT22;8838;50.144;8.176;2023-03-14T07:09:51;8.90;99.90
17442;DHT22;8838;50.144;8.176;2023-03-14T07:12:18;9.00;99.90
17442;DHT22;8838;50.144;8.176;2023-03-14T07:14:45;9.00;99.90
17442;DHT22;8838;50.144;8.176;2023-03-14T07:17:13;9.00;99.90
17442;DHT22;8838;50.144;8.176;2023-03-14T07:19:40;9.00;99.90
17442;DHT22;8838;50.144;8.176;2023-03-14T07:22:07;9.00;99.90
17442;DHT22;8838;50.144;8.176;2023-03-14T07:24:33;9.00;99.90
17442;DHT22;8838;50.144;8.176;2023-03-14T07:27:00;9.00;99.90
17442;DHT22;8838;50.144;8.176;2023-03-14T07:29:29;8.90;99.90
17442;DHT22;8838;50.144;8.176;2023-03-14T07:31:56;8.90;99.90
17442;DHT22;8838;50.144;8.176;2023-03-14T07:34:24;8.90;99.90
17442;DHT22;8838;50.144;8.176;2023-03-14T07:36:51;8.90;99.90
17442;DHT22;8838;50.144;8.176;2023-03-14T07:39:18;8.90;99.90
17442;DHT22;8838;50.144;8.176;2023-03-14T07:41:45;8.90;99.90
17442;DHT22;8838;50.144;8.176;2023-03-14T07:44:12;8.80;99.90
17442;DHT22;8838;50.144;8.176;2023-03-14T07:46:39;8.80;99.90
17442;DHT22;8838;50.144;8.176;2023-03-14T07:49:06;8.80;99.90
17442;DHT22;8838;50.144;8.176;2023-03-14T07:51:34;8.80;99.90
17442;DHT22;8838;50.144;8.176;2023-03-14T07:54:01;8.90;99.90
17442;DHT22;8838;50.144;8.176;2023-03-14T07:56:27;8.80;99.90
17442;DHT22;8838;50.144;8.176;2023-03-14T07:58:54;8.80;99.90
17442;DHT22;8838;50.144;8.176;2023-03-14T08:01:21;8.80;99.90
17442;DHT22;8838;50.144;8.176;2023-03-14T08:03:48;8.90;99.90
17442;DHT22;8838;50.144;8.176;2023-03-14T08:06:15;8.90;99.90
17442;DHT22;8838;50.144;8.176;2023-03-14T08:08:43;8.90;99.90
17442;DHT22;8838;50.144;8.176;2023-03-14T08:11:10;9.00;99.90
17442;DHT22;8838;50.144;8.176;2023-03-14T08:13:37;9.20;99.90
17442;DHT22;8838;50.144;8.176;2023-03-14T08:16:05;9.30;99.90
17442;DHT22;8838;50.144;8.176;2023-03-14T08:18:32;9.50;99.90
17442;DHT22;8838;50.144;8.176;2023-03-14T08:21:02;9.60;99.90
17442;DHT22;8838;50.144;8.176;2023-03-14T08:23:29;9.60;99.90
17442;DHT22;8838;50.144;8.176;2023-03-14T08:25:57;9.70;99.90
17442;DHT22;8838;50.144;8.176;2023-03-14T08:28:24;9.70;99.90
17442;DHT22;8838;50.144;8.176;2023-03-14T08:30:56;9.70;99.90
17442;DHT22;8838;50.144;8.176;2023-03-14T08:33:23;9.70;99.90
17442;DHT22;8838;50.144;8.176;2023-03-14T08:35:51;9.70;99.90
17442;DHT22;8838;50.144;8.176;2023-03-14T08:38:19;9.70;99.90
17442;DHT22;8838;50.144;8.176;2023-03-14T08:40:45;9.60;99.90
17442;DHT22;8838;50.144;8.176;2023-03-14T08:43:14;9.60;99.90
17442;DHT22;8838;50.144;8.176;2023-03-14T08:45:41;9.50;99.90
17442;DHT22;8838;50.144;8.176;2023-03-14T08:48:07;9.40;99.90
17442;DHT22;8838;50.144;8.176;2023-03-14T08:50:34;9.30;99.90
17442;DHT22;8838;50.144;8.176;2023-03-14T08:53:01;9.30;99.90
17442;DHT22;8838;50.144;8.176;2023-03-14T08:55:28;9.30;99.90
17442;DHT22;8838;50.144;8.176;2023-03-14T08:57:54;9.30;99.90
17442;DHT22;8838;50.144;8.176;2023-03-14T09:00:23;9.30;99.90
17442;DHT22;8838;50.144;8.176;2023-03-14T09:02:50;9.40;99.90
17442;DHT22;8838;50.144;8.176;2023-03-14T09:05:17;9.30;99.90
17442;DHT22;8838;50.144;8.176;2023-03-14T09:07:44;9.30;99.90
17442;DHT22;8838;50.144;8.176;2023-03-14T09:10:11;9.30;99.90
17442;DHT22;8838;50.144;8.176;2023-03-14T09:12:38;9.30;99.90
17442;DHT22;8838;50.144;8.176;2023-03-14T09:15:06;9.30;99.90
17442;DHT22;8838;50.144;8.176;2023-03-14T09:17:36;9.40;99.90
17442;DHT22;8838;50.144;8.176;2023-03-14T09:20:03;9.50;99.90
17442;DHT22;8838;50.144;8.176;2023-03-14T09:22:32;9.50;99.90
17442;DHT22;8838;50.144;8.176;2023-03-14T09:25:01;9.50;99.90
17442;DHT22;8838;50.144;8.176;2023-03-14T09:27:28;9.60;99.90
17442;DHT22;8838;50.144;8.176;2023-03-14T09:29:55;9.60;99.90
17442;DHT22;8838;50.144;8.176;2023-03-14T09:32:22;9.70;99.90
17442;DHT22;8838;50.144;8.176;2023-03-14T09:34:50;9.80;99.90
17442;DHT22;8838;50.144;8.176;2023-03-14T09:37:17;9.70;99.90
17442;DHT22;8838;50.144;8.176;2023-03-14T09:39:45;9.80;99.90
17442;DHT22;8838;50.144;8.176;2023-03-14T09:42:14;9.70;99.90
17442;DHT22;8838;50.144;8.176;2023-03-14T09:44:52;9.70;99.90
17442;DHT22;8838;50.144;8.176;2023-03-14T09:47:20;9.60;99.90
17442;DHT22;8838;50.144;8.176;2023-03-14T09:49:47;9.60;99.90
17442;DHT22;8838;50.144;8.176;2023-03-14T09:52:19;9.60;99.90
17442;DHT22;8838;50.144;8.176;2023-03-14T09:54:50;9.60;99.90
17442;DHT22;8838;50.144;8.176;2023-03-14T09:57:20;9.60;99.90
17442;DHT22;8838;50.144;8.176;2023-03-14T09:59:49;9.50;99.90
17442;DHT22;8838;50.144;8.176;2023-03-14T10:02:19;9.60;99.90
17442;DHT22;8838;50.144;8.176;2023-03-14T10:04:47;9.60;99.90
17442;DHT22;8838;50.144;8.176;2023-03-14T10:07:18;9.60;99.90
17442;DHT22;8838;50.144;8.176;2023-03-14T10:09:48;9.60;99.90
17442;DHT22;8838;50.144;8.176;2023-03-14T10:12:16;9.60;99.90
17442;DHT22;8838;50.144;8.176;2023-03-14T10:14:49;9.60;99.90
17442;DHT22;8838;50.144;8.176;2023-03-14T10:17:18;9.60;99.90
17442;DHT22;8838;50.144;8.176;2023-03-14T10:19:53;9.60;99.90
17442;DHT22;8838;50.144;8.176;2023-03-14T10:22:26;9.60;99.90
17442;DHT22;8838;50.144;8.176;2023-03-14T10:24:56;9.60;99.90
17442;DHT22;8838;50.144;8.176;2023-03-14T10:27:29;9.60;99.90
17442;DHT22;8838;50.144;8.176;2023-03-14T10:29:57;9.60;99.90
17442;DHT22;8838;50.144;8.176;2023-03-14T10:32:31;9.60;99.90
17442;DHT22;8838;50.144;8.176;2023-03-14T10:35:18;9.70;99.90
17442;DHT22;8838;50.144;8.176;2023-03-14T10:37:57;9.70;99.90
17442;DHT22;8838;50.144;8.176;2023-03-14T10:40:28;9.70;99.90
17442;DHT22;8838;50.144;8.176;2023-03-14T10:42:58;9.60;99.90
17442;DHT22;8838;50.144;8.176;2023-03-14T10:45:30;9.60;99.90
17442;DHT22;8838;50.144;8.176;2023-03-14T10:48:05;9.60;99.90
17442;DHT22;8838;50.144;8.176;2023-03-14T10:50:32;9.60;99.90
17442;DHT22;8838;50.144;8.176;2023-03-14T10:53:03;9.60;99.90
17442;DHT22;8838;50.144;8.176;2023-03-14T10:55:40;9.70;99.90
17442;DHT22;8838;50.144;8.176;2023-03-14T10:58:18;9.60;99.90
17442;DHT22;8838;50.144;8.176;2023-03-14T11:00:47;9.60;99.90
17442;DHT22;8838;50.144;8.176;2023-03-14T11:03:17;9.60;99.90
17442;DHT22;8838;50.144;8.176;2023-03-14T11:05:50;9.70;99.90
17442;DHT22;8838;50.144;8.176;2023-03-14T11:08:25;9.80;99.90
17442;DHT22;8838;50.144;8.176;2023-03-14T11:10:57;9.80;99.90
17442;DHT22;8838;50.144;8.176;2023-03-14T11:13:26;9.90;99.90
17442;DHT22;8838;50.144;8.176;2023-03-14T11:16:04;9.80;99.90
17442;DHT22;8838;50.144;8.176;2023-03-14T11:19:01;9.90;99.90
17442;DHT22;8838;50.144;8.176;2023-03-14T11:21:32;10.00;99.90
17442;DHT22;8838;50.144;8.176;2023-03-14T11:24:18;10.10;99.90
17442;DHT22;8838;50.144;8.176;2023-03-14T11:26:53;10.20;99.90
17442;DHT22;8838;50.144;8.176;2023-03-14T11:29:28;10.20;99.90
17442;DHT22;8838;50.144;8.176;2023-03-14T11:32:02;10.30;99.90
17442;DHT22;8838;50.144;8.176;2023-03-14T11:34:38;10.30;99.90
17442;DHT22;8838;50.144;8.176;2023-03-14T11:37:11;10.30;99.90
17442;DHT22;8838;50.144;8.176;2023-03-14T11:39:49;10.30;99.90
17442;DHT22;8838;50.144;8.176;2023-03-14T11:42:19;10.30;99.90
17442;DHT22;8838;50.144;8.176;2023-03-14T11:44:48;10.10;99.90
17442;DHT22;8838;50.144;8.176;2023-03-14T11:47:18;9.40;99.90
17442;DHT22;8838;50.144;8.176;2023-03-14T11:49:50;8.60;99.90
17442;DHT22;8838;50.144;8.176;2023-03-14T11:52:20;8.30;99.90
17442;DHT22;8838;50.144;8.176;2023-03-14T11:54:55;8.00;99.90
17442;DHT22;8838;50.144;8.176;2023-03-14T11:57:24;7.90;99.90
17442;DHT22;8838;50.144;8.176;2023-03-14T11:59:55;7.80;99.90
17442;DHT22;8838;50.144;8.176;2023-03-14T12:02:28;7.80;99.90
17442;DHT22;8838;50.144;8.176;2023-03-14T12:05:24;7.80;99.90
17442;DHT22;8838;50.144;8.176;2023-03-14T12:08:14;7.90;99.90
17442;DHT22;8838;50.144;8.176;2023-03-14T12:10:48;8.00;99.90
17442;DHT22;8838;50.144;8.176;2023-03-14T12:13:16;8.00;99.90
17442;DHT22;8838;50.144;8.176;2023-03-14T12:15:48;8.00;99.90
17442;DHT22;8838;50.144;8.176;2023-03-14T12:18:20;8.00;99.90
17442;DHT22;8838;50.144;8.176;2023-03-14T12:20:53;7.90;99.90
17442;DHT22;8838;50.144;8.176;2023-03-14T12:23:21;7.90;99.90
17442;DHT22;8838;50.144;8.176;2023-03-14T12:26:07;7.80;99.90
17442;DHT22;8838;50.144;8.176;2023-03-14T12:28:34;7.90;99.90
17442;DHT22;8838;50.144;8.176;2023-03-14T12:34:02;8.50;99.90
17442;DHT22;8838;50.144;8.176;2023-03-14T12:36:54;8.50;99.90
17442;DHT22;8838;50.144;8.176;2023-03-14T12:39:33;8.40;99.90
17442;DHT22;8838;50.144;8.176;2023-03-14T12:42:04;8.30;99.90
17442;DHT22;8838;50.144;8.176;2023-03-14T12:44:43;8.20;99.90
17442;DHT22;8838;50.144;8.176;2023-03-14T12:47:46;8.10;99.90
17442;DHT22;8838;50.144;8.176;2023-03-14T12:50:31;8.00;99.90
17442;DHT22;8838;50.144;8.176;2023-03-14T12:53:20;7.80;99.90
17442;DHT22;8838;50.144;8.176;2023-03-14T12:55:57;8.00;99.90
17442;DHT22;8838;50.144;8.176;2023-03-14T12:58:31;8.20;99.90
17442;DHT22;8838;50.144;8.176;2023-03-14T13:01:00;8.30;99.90
17442;DHT22;8838;50.144;8.176;2023-03-14T13:03:39;8.40;99.90
17442;DHT22;8838;50.144;8.176;2023-03-14T13:06:09;8.50;99.90
17442;DHT22;8838;50.144;8.176;2023-03-14T13:08:39;8.60;99.90
17442;DHT22;8838;50.144;8.176;2023-03-14T13:11:09;8.60;99.90
17442;DHT22;8838;50.144;8.176;2023-03-14T13:13:42;8.50;99.90
17442;DHT22;8838;50.144;8.176;2023-03-14T13:16:17;8.40;99.90
17442;DHT22;8838;50.144;8.176;2023-03-14T13:18:48;8.20;99.90
17442;DHT22;8838;50.144;8.176;2023-03-14T13:21:18;8.20;99.90
17442;DHT22;8838;50.144;8.176;2023-03-14T13:23:57;8.20;99.90
17442;DHT22;8838;50.144;8.176;2023-03-14T13:26:32;8.30;99.90
17442;DHT22;8838;50.144;8.176;2023-03-14T13:29:09;8.10;99.90
17442;DHT22;8838;50.144;8.176;2023-03-14T13:31:36;8.00;99.90
17442;DHT22;8838;50.144;8.176;2023-03-14T13:34:06;7.80;99.90
17442;DHT22;8838;50.144;8.176;2023-03-14T13:36:36;7.50;99.90
17442;DHT22;8838;50.144;8.176;2023-03-14T13:39:09;7.10;99.90
17442;DHT22;8838;50.144;8.176;2023-03-14T13:41:38;6.80;99.90
17442;DHT22;8838;50.144;8.176;2023-03-14T13:44:08;6.60;99.90
17442;DHT22;8838;50.144;8.176;2023-03-14T13:46:36;6.50;99.90
17442;DHT22;8838;50.144;8.176;2023-03-14T13:49:09;6.40;99.90
17442;DHT22;8838;50.144;8.176;2023-03-14T13:51:38;6.30;99.90
17442;DHT22;8838;50.144;8.176;2023-03-14T13:54:13;6.20;99.90
17442;DHT22;8838;50.144;8.176;2023-03-14T13:56:40;6.10;99.90
17442;DHT22;8838;50.144;8.176;2023-03-14T13:59:23;6.20;99.90
17442;DHT22;8838;50.144;8.176;2023-03-14T14:01:51;6.10;99.90
17442;DHT22;8838;50.144;8.176;2023-03-14T14:04:20;6.10;99.90
17442;DHT22;8838;50.144;8.176;2023-03-14T14:06:50;6.10;99.90
17442;DHT22;8838;50.144;8.176;2023-03-14T14:09:23;6.00;99.90
17442;DHT22;8838;50.144;8.176;2023-03-14T14:11:53;5.80;99.90
17442;DHT22;8838;50.144;8.176;2023-03-14T14:14:25;5.70;99.90
17442;DHT22;8838;50.144;8.176;2023-03-14T14:16:55;5.60;99.90
17442;DHT22;8838;50.144;8.176;2023-03-14T14:19:26;5.60;99.90
17442;DHT22;8838;50.144;8.176;2023-03-14T14:21:54;5.50;99.90
17442;DHT22;8838;50.144;8.176;2023-03-14T14:24:24;5.40;99.90
17442;DHT22;8838;50.144;8.176;2023-03-14T14:26:52;5.30;99.90
17442;DHT22;8838;50.144;8.176;2023-03-14T14:29:31;5.30;99.90
17442;DHT22;8838;50.144;8.176;2023-03-14T14:32:12;5.20;99.90
17442;DHT22;8838;50.144;8.176;2023-03-14T14:34:40;5.10;99.90
17442;DHT22;8838;50.144;8.176;2023-03-14T14:37:19;5.10;99.90
17442;DHT22;8838;50.144;8.176;2023-03-14T14:39:47;5.00;99.90
17442;DHT22;8838;50.144;8.176;2023-03-14T14:42:16;5.00;99.90
17442;DHT22;8838;50.144;8.176;2023-03-14T14:44:44;4.90;99.90
17442;DHT22;8838;50.144;8.176;2023-03-14T14:47:14;4.80;99.90
17442;DHT22;8838;50.144;8.176;2023-03-14T14:49:43;4.70;99.90
17442;DHT22;8838;50.144;8.176;2023-03-14T14:52:14;4.50;99.90
17442;DHT22;8838;50.144;8.176;2023-03-14T14:54:46;4.50;99.90
17442;DHT22;8838;50.144;8.176;2023-03-14T14:57:18;4.40;99.90
17442;DHT22;8838;50.144;8.176;2023-03-14T14:59:48;4.30;99.90
17442;DHT22;8838;50.144;8.176;2023-03-14T15:02:29;4.30;99.90
17442;DHT22;8838;50.144;8.176;2023-03-14T15:04:56;4.40;99.90
17442;DHT22;8838;50.144;8.176;2023-03-14T15:07:23;4.40;99.90
17442;DHT22;8838;50.144;8.176;2023-03-14T15:09:50;4.50;99.90
17442;DHT22;8838;50.144;8.176;2023-03-14T15:12:17;4.60;99.90
17442;DHT22;8838;50.144;8.176;2023-03-14T15:14:46;4.60;99.90
17442;DHT22;8838;50.144;8.176;2023-03-14T15:17:13;4.60;99.90
17442;DHT22;8838;50.144;8.176;2023-03-14T15:19:40;4.60;99.90
17442;DHT22;8838;50.144;8.176;2023-03-14T15:22:11;4.80;99.90
17442;DHT22;8838;50.144;8.176;2023-03-14T15:24:39;4.70;99.90
17442;DHT22;8838;50.144;8.176;2023-03-14T15:27:11;4.70;99.90
17442;DHT22;8838;50.144;8.176;2023-03-14T15:29:39;4.70;99.90
17442;DHT22;8838;50.144;8.176;2023-03-14T15:32:10;4.70;99.90
17442;DHT22;8838;50.144;8.176;2023-03-14T15:34:38;4.60;99.90
17442;DHT22;8838;50.144;8.176;2023-03-14T15:37:07;4.50;99.90
17442;DHT22;8838;50.144;8.176;2023-03-14T15:39:35;4.50;99.90
17442;DHT22;8838;50.144;8.176;2023-03-14T15:42:01;4.50;99.90
17442;DHT22;8838;50.144;8.176;2023-03-14T15:44:28;4.60;99.90
17442;DHT22;8838;50.144;8.176;2023-03-14T15:46:55;4.50;99.90
17442;DHT22;8838;50.144;8.176;2023-03-14T15:49:26;4.60;99.90
17442;DHT22;8838;50.144;8.176;2023-03-14T15:51:54;4.60;99.90
17442;DHT22;8838;50.144;8.176;2023-03-14T15:54:21;4.70;99.90
17442;DHT22;8838;50.144;8.176;2023-03-14T15:56:48;4.70;99.90
17442;DHT22;8838;50.144;8.176;2023-03-14T15:59:14;4.70;99.90
17442;DHT22;8838;50.144;8.176;2023-03-14T16:01:41;4.70;99.90
17442;DHT22;8838;50.144;8.176;2023-03-14T16:04:08;4.80;99.90
17442;DHT22;8838;50.144;8.176;2023-03-14T16:06:36;4.80;99.90
17442;DHT22;8838;50.144;8.176;2023-03-14T16:09:03;4.80;99.90
17442;DHT22;8838;50.144;8.176;2023-03-14T16:11:30;4.80;99.90
17442;DHT22;8838;50.144;8.176;2023-03-14T16:13:57;4.80;99.90
17442;DHT22;8838;50.144;8.176;2023-03-14T16:16:24;4.80;99.90
17442;DHT22;8838;50.144;8.176;2023-03-14T16:18:50;4.70;99.90